This is the latest recevied weather packets stored in our database for station/object KB2M. If no packets are shown the sender has not sent any weather packets the latest 1 day(s).
| Time | Temp. | Humidity | Pressure | Rain* | Wind** | Luminosity | Snow |
|---|---|---|---|---|---|---|---|
| 1778004037 | 24.44° C | 57% | 1018.9 hPa | 0 mm | 3.13 m/s, 37° | - | - |
| 1778003436 | 24.44° C | 55% | 1018.6 hPa | 0 mm | 2.68 m/s, 41° | - | - |
| 1778002836 | 24.44° C | 55% | 1018.9 hPa | 0 mm | 3.58 m/s, 33° | - | - |
| 1778002206 | 25° C | 52% | 1018.9 hPa | 0 mm | 2.24 m/s, 57° | - | - |
| 1778001606 | 25° C | 52% | 1019.3 hPa | 0 mm | 2.24 m/s, 51° | - | - |
| 1778000976 | 24.44° C | 53% | 1018.9 hPa | 0 mm | 2.24 m/s, 48° | - | - |
| 1778000346 | 23.89° C | 55% | 1019.3 hPa | 0 mm | 3.13 m/s, 48° | - | - |
| 1777999746 | 24.44° C | 55% | 1019.3 hPa | 0 mm | 2.68 m/s, 54° | - | - |
| 1777999116 | 24.44° C | 56% | 1019.3 hPa | 0 mm | 2.68 m/s, 53° | - | - |
| 1777998516 | 24.44° C | 56% | 1019.3 hPa | 0 mm | 2.24 m/s, 68° | - | - |
| 1777997886 | 24.44° C | 56% | 1019.3 hPa | 0 mm | 2.24 m/s, 58° | - | - |
| 1777997256 | 24.44° C | 57% | 1019.3 hPa | 0 mm | 2.24 m/s, 65° | - | - |
| 1777996626 | 24.44° C | 56% | 1018.9 hPa | 0 mm | 2.24 m/s, 62° | - | - |
| 1777996026 | 23.89° C | 58% | 1018.9 hPa | 0 mm | 2.68 m/s, 39° | - | - |
| 1777995425 | 24.44° C | 58% | 1019.3 hPa | 0 mm | 2.24 m/s, 58° | - | - |
| 1777994825 | 23.89° C | 57% | 1018.9 hPa | 0 mm | 2.68 m/s, 34° | - | - |
| 1777994224 | 24.44° C | 57% | 1018.9 hPa | 0 mm | 2.24 m/s, 79° | - | - |
| 1777993624 | 24.44° C | 58% | 1019.3 hPa | 0 mm | 2.24 m/s, 75° | - | - |
| 1777993023 | 23.89° C | 59% | 1019.3 hPa | 0 mm | 2.68 m/s, 66° | - | - |
| 1777992423 | 24.44° C | 58% | 1018.9 hPa | 0 mm | 1.79 m/s, 61° | - | - |
| 1777991822 | 23.89° C | 59% | 1018.9 hPa | 0 mm | 2.24 m/s, 50° | - | - |
| 1777991221 | 23.89° C | 58% | 1018.9 hPa | 0 mm | 1.79 m/s, 90° | - | - |
| 1777990592 | 23.89° C | 58% | 1018.9 hPa | 0 mm | 1.79 m/s, 72° | - | - |
| 1777989961 | 23.89° C | 57% | 1018.6 hPa | 0 mm | 1.79 m/s, 61° | - | - |
| 1777989362 | 23.89° C | 59% | 1018.9 hPa | 0 mm | 1.79 m/s, 52° | - | - |
* Rain latest hour (hover to see other rain measurements)
** Current wind speed in m/s (hover to see current wind gust speed)